Time;durP1;ratioP1;P1;durP2;ratioP2;P2;SDS_P1;SDS_P2;PMS_P1;PMS_P2;Temp;Humidity;BMP_temperature;BMP_pressure;BME280_temperature;BME280_humidity;BME280_pressure;Samples;Min_cycle;Max_cycle;Signal;HPM_P1;HPM_P2
2022/10/18 00:01:21;;;;;;;;;;;;;;;14.43;83.50;102031.63;5032619;28;19929;-77
2022/10/18 00:04:05;;;;;;;;;;;;;;;14.36;83.70;102025.78;5034049;28;19917;-78
2022/10/18 00:06:50;;;;;;;;;;;;;;;14.51;82.63;102030.91;5033664;28;19921;-79
2022/10/18 00:09:34;;;;;;;;;;;;;;;14.43;82.76;102028.88;5035722;28;19917;-77
2022/10/18 00:12:18;;;;;;;;;;;;;;;14.38;82.37;102030.94;5039295;28;19917;-78
2022/10/18 00:15:04;;;;;;;;;;;;;;;13.92;84.11;102026.44;5029184;28;19917;-77
2022/10/18 00:17:48;;;;;;;;;;;;;;;13.94;84.40;102023.41;5016629;28;20304;-78
2022/10/18 00:20:33;;;;;;;;;;;;;;;14.11;84.27;102020.84;5014251;28;19922;-78
2022/10/18 00:23:17;;;;;;;;;;;;;;;14.31;83.14;102017.66;5016197;28;20397;-79
2022/10/18 00:26:03;;;;;;;;;;;;;;;14.40;82.25;102006.81;5020719;28;19917;-77
2022/10/18 00:28:52;;;;;;;;;;;;;;;14.35;82.17;102010.44;5034811;28;19933;-76
2022/10/18 00:31:37;;;;;;;;;;;;;;;14.38;82.18;102004.38;5037996;28;19917;-77
2022/10/18 00:34:21;;;;;;;;;;;;;;;14.49;82.29;102004.94;5040927;28;19917;-78
2022/10/18 00:37:06;;;;;;;;;;;;;;;14.62;81.93;102006.03;5034633;28;19918;-77
2022/10/18 00:39:50;;;;;;;;;;;;;;;14.50;81.95;102006.56;5034666;28;19917;-78
2022/10/18 00:42:35;;;;;;;;;;;;;;;14.48;81.00;102012.34;5062773;23;20318;-80
2022/10/18 00:45:21;;;;;;;;;;;;;;;14.37;81.56;102000.03;5071686;28;20310;-80
2022/10/18 00:48:06;;;;;;;;;;;;;;;14.49;81.57;102008.50;5076588;28;19916;-80
2022/10/18 00:50:51;;;;;;;;;;;;;;;14.51;80.88;102006.28;5058559;28;19916;-80
2022/10/18 00:53:36;;;;;;;;;;;;;;;14.48;80.39;102006.06;5068994;28;19917;-81
2022/10/18 00:56:21;;;;;;;;;;;;;;;14.39;81.25;102007.94;5080430;28;19916;-81
2022/10/18 00:59:06;;;;;;;;;;;;;;;14.39;80.85;102007.94;5058645;28;19917;-80
2022/10/18 01:01:50;;;;;;;;;;;;;;;14.50;80.52;102004.66;5064351;28;19917;-81
2022/10/18 01:04:35;;;;;;;;;;;;;;;14.37;81.04;101994.56;5066575;28;19917;-81
2022/10/18 01:07:32;;;;;;;;;;;;;;;14.35;81.26;101999.50;5074079;28;19917;-81
2022/10/18 01:10:22;;;;;;;;;;;;;;;14.48;81.11;101995.13;5070542;28;19920;-80
2022/10/18 01:13:25;;;;;;;;;;;;;;;14.47;79.92;101993.53;5074765;28;19917;-80
2022/10/18 01:16:19;;;;;;;;;;;;;;;14.32;80.19;101986.44;5073941;28;19916;-80
2022/10/18 01:19:27;;;;;;;;;;;;;;;14.20;80.64;101982.63;5065014;28;19920;-81
2022/10/18 01:22:47;;;;;;;;;;;;;;;13.81;82.99;101981.28;5077623;28;19921;-81
2022/10/18 01:25:47;;;;;;;;;;;;;;;13.56;84.75;101970.88;5093196;28;19916;-81
2022/10/18 01:28:48;;;;;;;;;;;;;;;13.48;85.81;101971.59;5077354;28;19920;-81
2022/10/18 01:31:35;;;;;;;;;;;;;;;13.37;86.56;101976.44;5058180;28;19916;-80
2022/10/18 01:34:21;;;;;;;;;;;;;;;13.41;86.39;101960.25;5058171;28;19921;-80
2022/10/18 01:37:08;;;;;;;;;;;;;;;13.31;87.18;101966.72;5062528;28;19916;-80
2022/10/18 01:39:54;;;;;;;;;;;;;;;13.40;86.86;101964.91;5077017;28;19916;-81
2022/10/18 01:42:39;;;;;;;;;;;;;;;13.36;87.35;101957.63;5078278;28;19921;-81
2022/10/18 01:45:24;;;;;;;;;;;;;;;13.30;87.69;101953.38;5082450;28;20402;-81
2022/10/18 01:48:10;;;;;;;;;;;;;;;13.24;87.61;101955.38;5078335;28;19916;-80
2022/10/18 01:50:55;;;;;;;;;;;;;;;13.18;88.45;101951.13;5077584;28;19916;-81
2022/10/18 01:53:40;;;;;;;;;;;;;;;13.44;87.14;101949.53;5077515;28;19916;-80
2022/10/18 01:56:27;;;;;;;;;;;;;;;13.65;86.62;101960.84;5080703;28;19916;-80
2022/10/18 01:59:30;;;;;;;;;;;;;;;13.63;86.10;101961.16;5078068;28;20303;-81
2022/10/18 02:02:16;;;;;;;;;;;;;;;13.42;86.94;101950.94;5075700;28;20392;-81
2022/10/18 02:05:21;;;;;;;;;;;;;;;13.56;86.44;101957.22;5078994;28;19916;-80
2022/10/18 02:08:07;;;;;;;;;;;;;;;13.34;87.14;101938.81;5076950;28;19998;-81
2022/10/18 02:11:01;;;;;;;;;;;;;;;13.31;86.82;101944.84;5076987;28;19916;-80
2022/10/18 02:13:48;;;;;;;;;;;;;;;13.23;87.52;101943.66;5076389;28;19916;-80
2022/10/18 02:16:36;;;;;;;;;;;;;;;13.18;88.02;101940.22;5065355;28;19920;-81
2022/10/18 02:19:34;;;;;;;;;;;;;;;13.22;87.87;101936.56;5068113;28;19916;-81
2022/10/18 02:22:19;;;;;;;;;;;;;;;13.37;86.93;101929.19;5077572;28;19920;-81
2022/10/18 02:25:05;;;;;;;;;;;;;;;13.38;86.61;101931.59;5081317;28;19921;-81
2022/10/18 02:27:51;;;;;;;;;;;;;;;13.33;87.16;101928.16;5077719;28;19916;-81
2022/10/18 02:30:46;;;;;;;;;;;;;;;13.33;87.19;101918.06;5077565;28;19917;-81
2022/10/18 02:33:35;;;;;;;;;;;;;;;13.42;86.91;101918.97;5060288;28;19916;-81
2022/10/18 02:36:25;;;;;;;;;;;;;;;13.37;86.76;101910.84;5059167;28;19917;-82
2022/10/18 02:39:15;;;;;;;;;;;;;;;13.49;85.86;101918.56;5073802;28;19916;-81
2022/10/18 02:42:05;;;;;;;;;;;;;;;13.56;85.46;101913.50;5072554;28;19920;-81
2022/10/18 02:44:49;;;;;;;;;;;;;;;13.57;85.00;101906.88;5078359;28;19916;-81
2022/10/18 02:47:34;;;;;;;;;;;;;;;13.60;85.06;101903.56;5064955;28;19921;-80
2022/10/18 02:50:18;;;;;;;;;;;;;;;13.52;83.97;101902.34;5076747;28;19917;-81
2022/10/18 02:53:03;;;;;;;;;;;;;;;13.54;83.57;101911.06;5076756;28;19916;-81
2022/10/18 02:55:47;;;;;;;;;;;;;;;13.41;84.32;101908.34;5076975;28;19917;-83
2022/10/18 02:58:32;;;;;;;;;;;;;;;13.37;84.76;101904.59;5076440;28;20311;-81
2022/10/18 03:01:16;;;;;;;;;;;;;;;13.35;85.33;101912.28;5078913;28;19921;-83
2022/10/18 03:04:01;;;;;;;;;;;;;;;13.29;85.76;101908.84;5075543;28;19916;-80
2022/10/18 03:06:46;;;;;;;;;;;;;;;13.29;85.53;101911.59;5080017;28;19916;-80
2022/10/18 03:09:30;;;;;;;;;;;;;;;13.23;85.65;101919.06;5077953;28;19917;-80
2022/10/18 03:12:15;;;;;;;;;;;;;;;13.15;85.64;101917.06;5070988;28;19917;-80
2022/10/18 03:14:59;;;;;;;;;;;;;;;13.27;85.22;101919.25;5071812;28;19916;-80
2022/10/18 03:17:44;;;;;;;;;;;;;;;13.22;85.64;101911.97;5074804;28;19920;-80
2022/10/18 03:20:28;;;;;;;;;;;;;;;13.30;85.95;101915.94;5069735;28;19920;-81
2022/10/18 03:23:13;;;;;;;;;;;;;;;13.18;86.49;101907.44;5067311;28;19924;-80
2022/10/18 03:25:57;;;;;;;;;;;;;;;13.28;85.67;101916.25;5079602;28;19916;-80
2022/10/18 03:28:42;;;;;;;;;;;;;;;13.25;85.92;101918.78;5065182;28;19916;-81
2022/10/18 03:31:26;;;;;;;;;;;;;;;13.40;84.87;101912.19;5068025;28;19921;-80
2022/10/18 03:34:10;;;;;;;;;;;;;;;13.40;85.14;101921.19;5060379;28;19917;-81
2022/10/18 03:36:56;;;;;;;;;;;;;;;13.45;84.55;101918.38;5078179;28;19916;-80
2022/10/18 03:39:41;;;;;;;;;;;;;;;13.32;84.57;101908.22;5079438;28;19916;-80
2022/10/18 03:42:25;;;;;;;;;;;;;;;13.28;85.17;101912.69;5082444;28;19920;-80
2022/10/18 03:45:10;;;;;;;;;;;;;;;13.45;84.59;101917.56;5080716;28;19938;-80
2022/10/18 03:47:54;;;;;;;;;;;;;;;13.56;84.00;101919.75;5078414;28;19920;-80
2022/10/18 03:50:38;;;;;;;;;;;;;;;13.28;85.00;101918.16;5082883;28;20379;-80
2022/10/18 03:53:23;;;;;;;;;;;;;;;13.36;84.26;101914.69;5073882;28;19916;-80
2022/10/18 03:56:07;;;;;;;;;;;;;;;13.46;83.71;101910.97;5073493;28;19916;-80
2022/10/18 03:58:52;;;;;;;;;;;;;;;13.40;82.54;101915.72;5070920;28;19916;-81
2022/10/18 04:01:36;;;;;;;;;;;;;;;13.21;84.07;101923.19;5081459;28;19921;-80
2022/10/18 04:04:20;;;;;;;;;;;;;;;13.20;84.12;101922.41;5079467;28;19916;-80
2022/10/18 04:07:05;;;;;;;;;;;;;;;13.29;83.25;101919.78;5068850;28;19928;-80
2022/10/18 04:09:49;;;;;;;;;;;;;;;13.31;84.08;101917.53;5070166;28;20387;-80
2022/10/18 04:12:34;;;;;;;;;;;;;;;13.36;83.31;101914.69;5073825;28;20311;-80
2022/10/18 04:15:18;;;;;;;;;;;;;;;13.42;83.77;101905.28;5074984;28;19920;-81
2022/10/18 04:18:03;;;;;;;;;;;;;;;13.44;83.19;101900.34;5079073;28;19916;-80
2022/10/18 04:20:48;;;;;;;;;;;;;;;13.46;82.90;101903.56;5076211;28;19921;-80
2022/10/18 04:23:32;;;;;;;;;;;;;;;13.38;82.89;101901.56;5073829;28;20486;-80
2022/10/18 04:26:16;;;;;;;;;;;;;;;13.32;83.56;101904.69;5060946;28;19916;-79
2022/10/18 04:29:01;;;;;;;;;;;;;;;13.28;83.83;101908.03;5061498;28;19917;-79
2022/10/18 04:31:45;;;;;;;;;;;;;;;13.25;84.10;101908.66;5075345;28;19917;-79
2022/10/18 04:34:29;;;;;;;;;;;;;;;13.26;83.79;101899.34;5081205;28;19916;-79
2022/10/18 04:37:14;;;;;;;;;;;;;;;13.40;83.26;101904.81;5082157;28;19920;-79
2022/10/18 04:39:58;;;;;;;;;;;;;;;13.25;82.77;101903.19;5072493;28;19917;-79
2022/10/18 04:42:43;;;;;;;;;;;;;;;13.34;82.75;101897.00;5069718;28;19921;-79
2022/10/18 04:45:27;;;;;;;;;;;;;;;13.50;81.80;101901.88;5091222;28;19920;-79
2022/10/18 04:48:12;;;;;;;;;;;;;;;13.33;81.48;101901.66;5080849;28;19917;-80
2022/10/18 04:50:56;;;;;;;;;;;;;;;13.48;79.88;101904.06;5078501;28;19916;-79
2022/10/18 04:53:40;;;;;;;;;;;;;;;13.44;79.29;101903.06;5078879;28;19916;-79
2022/10/18 04:56:25;;;;;;;;;;;;;;;13.34;79.70;101906.03;5077270;28;19917;-80
2022/10/18 04:59:09;;;;;;;;;;;;;;;13.43;79.30;101901.44;5060313;28;19916;-78
2022/10/18 05:01:54;;;;;;;;;;;;;;;13.19;80.11;101898.13;5073756;28;19924;-80
2022/10/18 05:04:38;;;;;;;;;;;;;;;13.26;79.55;101890.31;5079037;28;19916;-79
2022/10/18 05:07:23;;;;;;;;;;;;;;;13.08;81.10;101885.75;5082520;28;19916;-81
2022/10/18 05:10:07;;;;;;;;;;;;;;;12.65;85.48;101880.53;5078854;28;19917;-80
2022/10/18 05:12:52;;;;;;;;;;;;;;;12.66;85.82;101895.00;5081025;28;19916;-80
2022/10/18 05:15:36;;;;;;;;;;;;;;;12.85;84.55;101899.28;5076238;28;20379;-80
2022/10/18 05:18:21;;;;;;;;;;;;;;;13.01;84.01;101893.53;5072305;28;19921;-81
2022/10/18 05:21:05;;;;;;;;;;;;;;;13.14;82.54;101895.50;5081713;28;20294;-81
2022/10/18 05:23:53;;;;;;;;;;;;;;;13.07;82.89;101893.13;5068485;28;19916;-81
2022/10/18 05:26:38;;;;;;;;;;;;;;;13.07;83.62;101900.50;5081642;28;19917;-82
2022/10/18 05:29:22;;;;;;;;;;;;;;;13.13;82.79;101896.59;5079090;28;19916;-81
2022/10/18 05:32:07;;;;;;;;;;;;;;;13.27;80.09;101906.41;5083101;28;20295;-81
2022/10/18 05:34:51;;;;;;;;;;;;;;;13.29;78.71;101908.84;5077873;28;19917;-82
2022/10/18 05:37:35;;;;;;;;;;;;;;;13.13;79.77;101907.53;5071154;28;19916;-80
2022/10/18 05:40:20;;;;;;;;;;;;;;;13.06;80.28;101896.97;5071184;28;19916;-81
2022/10/18 05:43:04;;;;;;;;;;;;;;;13.32;78.97;101905.50;5079607;28;20231;-81
2022/10/18 05:45:49;;;;;;;;;;;;;;;13.39;77.26;101908.66;5083919;28;20383;-81
2022/10/18 05:48:34;;;;;;;;;;;;;;;13.51;77.44;101911.66;5079903;28;19920;-81
2022/10/18 05:51:18;;;;;;;;;;;;;;;13.58;78.87;101909.31;5080466;28;19916;-81
2022/10/18 05:54:02;;;;;;;;;;;;;;;13.51;79.32;101908.91;5081631;28;19916;-81
2022/10/18 05:56:47;;;;;;;;;;;;;;;13.61;79.15;101914.16;5073081;28;20391;-81
2022/10/18 05:59:31;;;;;;;;;;;;;;;13.63;80.19;101913.88;5073075;28;19917;-81
2022/10/18 06:02:16;;;;;;;;;;;;;;;13.89;79.96;101919.59;5073313;28;19924;-81
2022/10/18 06:05:00;;;;;;;;;;;;;;;14.10;78.87;101918.81;5070688;28;19916;-81
2022/10/18 06:07:45;;;;;;;;;;;;;;;14.58;76.40;101917.44;5074719;28;20372;-81
2022/10/18 06:10:29;;;;;;;;;;;;;;;14.32;77.14;101925.44;5077581;28;19917;-80
2022/10/18 06:13:14;;;;;;;;;;;;;;;14.53;75.80;101916.44;5083018;28;19920;-80
2022/10/18 06:15:58;;;;;;;;;;;;;;;14.17;76.40;101920.34;5078830;28;19917;-82
2022/10/18 06:18:46;;;;;;;;;;;;;;;14.08;77.69;101931.19;5071015;28;20372;-81
2022/10/18 06:21:30;;;;;;;;;;;;;;;14.45;77.28;101922.66;5071157;28;19920;-80
2022/10/18 06:24:15;;;;;;;;;;;;;;;14.66;76.40;101931.16;5068925;28;19924;-79
2022/10/18 06:26:59;;;;;;;;;;;;;;;14.41;77.54;101929.88;5077874;28;19916;-80
2022/10/18 06:29:44;;;;;;;;;;;;;;;14.24;78.00;101923.44;5078488;28;20408;-80
2022/10/18 06:32:28;;;;;;;;;;;;;;;14.04;79.60;101925.53;5081047;28;19917;-80
2022/10/18 06:35:13;;;;;;;;;;;;;;;14.62;77.38;101929.38;5073309;28;19916;-80
2022/10/18 06:37:57;;;;;;;;;;;;;;;14.69;77.30;101929.72;5074579;28;19917;-81
2022/10/18 06:40:42;;;;;;;;;;;;;;;14.89;76.99;101920.97;5081343;28;20307;-81
2022/10/18 06:43:27;;;;;;;;;;;;;;;15.04;76.49;101919.75;5077753;28;20295;-80
2022/10/18 06:46:11;;;;;;;;;;;;;;;15.12;77.08;101932.69;5080296;28;19917;-81
2022/10/18 06:48:56;;;;;;;;;;;;;;;15.00;77.80;101930.53;5074287;28;19916;-80
2022/10/18 06:51:41;;;;;;;;;;;;;;;15.28;77.70;101925.69;5079297;28;19916;-81
2022/10/18 06:54:26;;;;;;;;;;;;;;;15.60;76.58;101933.53;5071034;28;19916;-81
2022/10/18 06:57:10;;;;;;;;;;;;;;;15.74;76.28;101933.41;5074067;28;19916;-81
2022/10/18 06:59:54;;;;;;;;;;;;;;;15.89;76.15;101938.44;5076207;28;19917;-82
2022/10/18 07:02:40;;;;;;;;;;;;;;;16.01;76.06;101938.59;5079531;28;20403;-80
2022/10/18 07:05:24;;;;;;;;;;;;;;;16.25;75.06;101940.88;5080613;28;19920;-81
2022/10/18 07:08:09;;;;;;;;;;;;;;;16.38;74.91;101952.81;5099627;22;19925;-81
2022/10/18 07:10:53;;;;;;;;;;;;;;;16.53;74.35;101944.06;5087563;28;19920;-82
2022/10/18 07:13:37;;;;;;;;;;;;;;;16.61;74.03;101940.53;5073724;28;19917;-81
2022/10/18 07:16:22;;;;;;;;;;;;;;;16.75;73.55;101941.16;5072824;28;19916;-82
2022/10/18 07:19:06;;;;;;;;;;;;;;;16.82;72.73;101951.63;5077646;28;20293;-81
2022/10/18 07:21:51;;;;;;;;;;;;;;;16.50;74.22;101951.03;5092407;28;19920;-79
2022/10/18 07:24:35;;;;;;;;;;;;;;;16.82;73.60;101955.19;5090105;28;19917;-77
2022/10/18 07:27:19;;;;;;;;;;;;;;;16.72;73.79;101951.97;5077750;28;19917;-78
2022/10/18 07:30:08;;;;;;;;;;;;;;;16.92;73.24;101941.09;5075444;28;19920;-79
2022/10/18 07:32:56;;;;;;;;;;;;;;;17.16;71.81;101946.03;5095354;28;19924;-78
2022/10/18 07:35:40;;;;;;;;;;;;;;;17.31;70.79;101953.75;5091320;28;19920;-79
2022/10/18 07:38:25;;;;;;;;;;;;;;;17.67;67.80;101947.75;5072169;28;19917;-78
2022/10/18 07:41:11;;;;;;;;;;;;;;;17.06;71.25;101949.97;5082812;28;19917;-80
2022/10/18 07:43:55;;;;;;;;;;;;;;;17.18;70.71;101942.94;5097220;28;20295;-80
2022/10/18 07:46:40;;;;;;;;;;;;;;;17.10;70.58;101947.34;5092370;28;20544;-79
2022/10/18 07:49:24;;;;;;;;;;;;;;;17.45;69.39;101946.06;5092237;28;20298;-79
2022/10/18 07:52:09;;;;;;;;;;;;;;;17.53;69.32;101944.38;5091626;28;20302;-82
2022/10/18 07:54:53;;;;;;;;;;;;;;;17.39;69.24;101938.31;5095818;28;19927;-80
2022/10/18 07:57:37;;;;;;;;;;;;;;;17.47;68.70;101941.03;5092527;28;20298;-79
2022/10/18 08:00:22;;;;;;;;;;;;;;;17.48;68.52;101937.13;5091497;28;19916;-80
2022/10/18 08:03:06;;;;;;;;;;;;;;;17.47;69.67;101940.25;5094600;28;19920;-80
2022/10/18 08:05:54;;;;;;;;;;;;;;;17.62;66.67;101944.41;5098564;28;20447;-81
2022/10/18 08:08:39;;;;;;;;;;;;;;;17.73;64.35;101938.16;5095989;28;19916;-80
2022/10/18 08:11:24;;;;;;;;;;;;;;;18.06;65.49;101940.19;5096075;28;19920;-80
2022/10/18 08:14:09;;;;;;;;;;;;;;;18.28;65.30;101946.19;5098079;28;19916;-78
2022/10/18 08:16:54;;;;;;;;;;;;;;;18.32;64.99;101951.81;5095872;28;20379;-78
2022/10/18 08:19:38;;;;;;;;;;;;;;;18.85;63.18;101950.16;5095665;28;19916;-80
2022/10/18 08:22:23;;;;;;;;;;;;;;;19.09;62.08;101955.75;5097868;28;19928;-79
2022/10/18 08:25:07;;;;;;;;;;;;;;;19.02;62.41;101958.25;5095570;28;19916;-78
2022/10/18 08:27:52;;;;;;;;;;;;;;;18.68;63.39;101948.44;5095478;28;20295;-78
2022/10/18 08:30:36;;;;;;;;;;;;;;;18.68;63.67;101948.44;5095350;28;19916;-78
2022/10/18 08:33:21;;;;;;;;;;;;;;;19.42;61.71;101944.63;5096279;28;20379;-80
2022/10/18 08:36:07;;;;;;;;;;;;;;;18.98;62.92;101951.81;5100323;28;19920;-80
2022/10/18 08:38:51;;;;;;;;;;;;;;;18.98;63.16;101954.59;5098006;28;20299;-78
2022/10/18 08:41:35;;;;;;;;;;;;;;;19.58;61.34;101946.38;5096287;28;19920;-78
2022/10/18 08:44:29;;;;;;;;;;;;;;;19.58;61.17;101945.56;5100443;28;19920;-78
2022/10/18 08:47:15;;;;;;;;;;;;;;;19.23;62.70;101950.72;5097776;28;20286;-78
2022/10/18 08:50:02;;;;;;;;;;;;;;;19.31;62.56;101944.25;5094828;28;20521;-81
2022/10/18 08:53:05;;;;;;;;;;;;;;;19.64;61.53;101936.72;5099793;28;19916;-79
2022/10/18 08:55:53;;;;;;;;;;;;;;;19.81;60.88;101938.38;5096937;28;19916;-79
2022/10/18 08:58:38;;;;;;;;;;;;;;;19.80;61.39;101936.00;5094863;28;19916;-79
2022/10/18 09:01:28;;;;;;;;;;;;;;;19.76;61.46;101937.84;5098703;28;19916;-78
2022/10/18 09:04:29;;;;;;;;;;;;;;;20.18;59.78;101943.81;5095031;28;19916;-79
2022/10/18 09:07:14;;;;;;;;;;;;;;;19.93;61.28;101934.81;5094467;28;19920;-79
2022/10/18 09:10:07;;;;;;;;;;;;;;;20.03;60.93;101928.81;5094402;28;19916;-80
2022/10/18 09:13:10;;;;;;;;;;;;;;;20.23;59.17;101924.25;5095091;28;19916;-80
2022/10/18 09:16:00;;;;;;;;;;;;;;;20.64;58.45;101926.63;5094838;28;19920;-82
2022/10/18 09:19:02;;;;;;;;;;;;;;;20.51;55.22;101922.31;5094292;28;19920;-79
2022/10/18 09:21:53;;;;;;;;;;;;;;;20.61;55.43;101916.28;5094460;28;19924;-79
2022/10/18 09:24:39;;;;;;;;;;;;;;;20.80;55.40;101919.16;5097236;28;20306;-78
2022/10/18 09:27:32;;;;;;;;;;;;;;;21.09;54.52;101915.16;5094331;28;20327;-79
2022/10/18 09:30:32;;;;;;;;;;;;;;;21.24;54.44;101908.84;5093895;28;20294;-79
2022/10/18 09:33:23;;;;;;;;;;;;;;;20.92;53.99;101910.00;5096338;28;19916;-80
2022/10/18 09:36:09;;;;;;;;;;;;;;;21.11;53.81;101900.97;5094404;28;19916;-78
2022/10/18 09:38:58;;;;;;;;;;;;;;;20.92;54.18;101901.69;5097824;28;19917;-78
2022/10/18 09:41:48;;;;;;;;;;;;;;;21.01;53.38;101899.53;5090726;28;19920;-77
2022/10/18 09:44:43;;;;;;;;;;;;;;;21.05;53.66;101900.44;5092001;28;19916;-78
2022/10/18 09:47:37;;;;;;;;;;;;;;;21.29;53.58;101897.50;5086024;28;19916;-78
2022/10/18 09:50:40;;;;;;;;;;;;;;;21.38;53.13;101900.09;5088685;28;19916;-78
2022/10/18 09:53:32;;;;;;;;;;;;;;;21.41;52.76;101893.00;5080125;28;20311;-76
2022/10/18 09:56:21;;;;;;;;;;;;;;;21.41;51.73;101887.47;5093211;28;19916;-81
2022/10/18 09:59:19;;;;;;;;;;;;;;;21.61;51.56;101883.59;5087545;28;20306;-79
2022/10/18 10:02:04;;;;;;;;;;;;;;;21.60;51.35;101879.22;5094766;28;19920;-79
2022/10/18 10:04:50;;;;;;;;;;;;;;;21.50;51.42;101877.81;5086853;28;19923;-79
2022/10/18 10:07:40;;;;;;;;;;;;;;;21.72;51.36;101873.56;5087647;28;19917;-77
2022/10/18 10:10:26;;;;;;;;;;;;;;;21.49;50.98;101886.47;5092249;28;19920;-79
2022/10/18 10:13:16;;;;;;;;;;;;;;;21.62;50.80;101883.25;5076010;28;19916;-80
2022/10/18 10:16:01;;;;;;;;;;;;;;;21.87;49.71;101883.78;5072273;28;19921;-77
2022/10/18 10:18:52;;;;;;;;;;;;;;;21.78;50.55;101880.41;5073080;28;19916;-80
2022/10/18 10:21:38;;;;;;;;;;;;;;;21.80;50.27;101872.53;5080593;28;19916;-81
2022/10/18 10:24:33;;;;;;;;;;;;;;;21.84;50.66;101881.72;5092321;28;20294;-82
2022/10/18 10:27:30;;;;;;;;;;;;;;;22.03;50.38;101887.31;5088368;28;19916;-78
2022/10/18 10:30:26;;;;;;;;;;;;;;;22.05;50.31;101875.84;5083457;28;19924;-80
2022/10/18 10:33:29;;;;;;;;;;;;;;;22.20;50.07;101879.72;5086008;28;19916;-79
2022/10/18 10:36:17;;;;;;;;;;;;;;;22.39;48.88;101882.47;5092303;28;19920;-79
2022/10/18 10:39:01;;;;;;;;;;;;;;;22.37;48.43;101876.50;5083654;28;19912;-79
2022/10/18 10:41:47;;;;;;;;;;;;;;;22.62;47.77;101869.44;5099180;28;19920;-77
2022/10/18 10:44:32;;;;;;;;;;;;;;;22.75;48.16;101864.53;5088860;28;20314;-81
2022/10/18 10:47:27;;;;;;;;;;;;;;;22.78;47.63;101861.81;5083816;28;19916;-79
2022/10/18 10:50:12;;;;;;;;;;;;;;;22.66;47.14;101852.84;5098878;28;19916;-79
2022/10/18 10:52:57;;;;;;;;;;;;;;;22.72;46.35;101851.41;5083368;28;19920;-79
2022/10/18 10:55:45;;;;;;;;;;;;;;;22.50;46.59;101839.13;5086898;28;19916;-81
2022/10/18 10:58:33;;;;;;;;;;;;;;;22.52;46.14;101839.53;5092845;28;19916;-78
2022/10/18 11:01:18;;;;;;;;;;;;;;;22.92;45.85;101826.00;5094136;28;20303;-79
2022/10/18 11:04:22;;;;;;;;;;;;;;;22.72;45.65;101824.47;5086008;28;19920;-80
2022/10/18 11:07:07;;;;;;;;;;;;;;;22.93;46.41;101819.28;5094088;28;19916;-79
2022/10/18 11:10:10;;;;;;;;;;;;;;;22.97;45.72;101822.09;5096014;28;20375;-80
2022/10/18 11:13:14;;;;;;;;;;;;;;;22.85;46.22;101817.56;5096393;28;19920;-78
2022/10/18 11:16:03;;;;;;;;;;;;;;;23.20;45.91;101803.44;5091223;28;19916;-77
2022/10/18 11:18:48;;;;;;;;;;;;;;;23.46;45.53;101796.28;5089025;28;20394;-78
2022/10/18 11:21:34;;;;;;;;;;;;;;;23.67;45.45;101791.00;5092265;28;19916;-78
2022/10/18 11:24:19;;;;;;;;;;;;;;;23.75;45.26;101787.94;5073727;28;19920;-80
2022/10/18 11:27:17;;;;;;;;;;;;;;;23.48;45.96;101783.59;5073673;28;19916;-78
2022/10/18 11:30:12;;;;;;;;;;;;;;;23.38;46.61;101779.47;5084011;28;19916;-79
2022/10/18 11:33:09;;;;;;;;;;;;;;;23.89;45.33;101773.38;5083037;28;19916;-79
2022/10/18 11:35:58;;;;;;;;;;;;;;;23.98;45.58;101771.09;5086432;28;19916;-77
2022/10/18 11:38:52;;;;;;;;;;;;;;;23.94;45.26;101766.69;5092338;28;19916;-78
2022/10/18 11:41:43;;;;;;;;;;;;;;;24.40;43.90;101762.41;5097776;28;20291;-79
2022/10/18 11:44:44;;;;;;;;;;;;;;;25.11;43.14;101746.25;5101400;28;20290;-80
2022/10/18 11:47:32;;;;;;;;;;;;;;;24.63;43.43;101735.19;5098962;28;19916;-79
2022/10/18 11:50:25;;;;;;;;;;;;;;;25.14;42.41;101735.13;5096167;28;19916;-79
2022/10/18 11:53:12;;;;;;;;;;;;;;;25.62;42.17;101734.97;5097090;28;20295;-80
2022/10/18 11:56:03;;;;;;;;;;;;;;;25.58;42.16;101731.38;5098172;28;19916;-79
2022/10/18 11:58:47;;;;;;;;;;;;;;;26.06;41.85;101726.28;5097441;28;19931;-77
2022/10/18 12:01:43;;;;;;;;;;;;;;;25.60;42.79;101722.63;5099450;28;19916;-78
2022/10/18 12:04:35;;;;;;;;;;;;;;;27.16;40.21;101715.88;5095416;28;20482;-80
2022/10/18 12:07:21;;;;;;;;;;;;;;;29.35;35.53;101718.19;5089073;28;19916;-80
2022/10/18 12:10:07;;;;;;;;;;;;;;;31.02;32.15;101724.78;5087289;28;19924;-80
2022/10/18 12:12:55;;;;;;;;;;;;;;;32.95;28.62;101722.66;5087944;28;19916;-79
2022/10/18 12:15:40;;;;;;;;;;;;;;;34.41;26.17;101714.09;5092915;28;20387;-79
2022/10/18 12:18:25;;;;;;;;;;;;;;;33.69;27.46;101714.84;5097961;28;20391;-83
2022/10/18 12:21:11;;;;;;;;;;;;;;;34.13;26.46;101707.38;5083737;28;20395;-82
2022/10/18 12:24:01;;;;;;;;;;;;;;;33.33;27.89;101703.03;5098629;28;19920;-81
2022/10/18 12:26:49;;;;;;;;;;;;;;;34.37;26.32;101704.97;5096733;28;19916;-80
2022/10/18 12:29:38;;;;;;;;;;;;;;;32.79;27.96;101702.97;5094240;28;19916;-81
2022/10/18 12:32:25;;;;;;;;;;;;;;;33.79;26.87;101691.13;5099025;28;19928;-82
2022/10/18 12:35:12;;;;;;;;;;;;;;;35.18;24.98;101689.97;5087426;28;19917;-80
2022/10/18 12:38:04;;;;;;;;;;;;;;;36.08;23.44;101685.16;5082419;28;19916;-81
2022/10/18 12:40:51;;;;;;;;;;;;;;;38.18;21.34;101694.13;5092055;28;19916;-78
2022/10/18 12:43:36;;;;;;;;;;;;;;;36.06;22.89;101677.16;5094991;28;19921;-79
2022/10/18 12:46:21;;;;;;;;;;;;;;;36.40;22.94;101676.91;5081972;28;19916;-80
2022/10/18 12:49:09;;;;;;;;;;;;;;;37.19;22.02;101671.34;5076466;28;19912;-79
2022/10/18 12:52:02;;;;;;;;;;;;;;;34.51;25.47;101676.22;5075911;28;19917;-79
2022/10/18 12:55:01;;;;;;;;;;;;;;;34.10;25.63;101653.81;5088715;28;20374;-79
2022/10/18 12:57:52;;;;;;;;;;;;;;;34.03;25.38;101654.09;5090216;28;19917;-80
2022/10/18 13:00:36;;;;;;;;;;;;;;;34.88;24.43;101663.19;5094534;28;19916;-79
2022/10/18 13:03:24;;;;;;;;;;;;;;;35.50;23.49;101649.09;5094431;28;19920;-79
2022/10/18 13:06:08;;;;;;;;;;;;;;;33.75;25.51;101645.31;5094326;28;19916;-80
2022/10/18 13:09:14;;;;;;;;;;;;;;;34.33;25.28;101647.81;5083796;23;19928;-84
2022/10/18 13:12:07;;;;;;;;;;;;;;;36.04;23.06;101642.84;5054517;28;19921;-83
2022/10/18 13:15:03;;;;;;;;;;;;;;;35.18;24.00;101653.19;5054984;28;19916;-84
2022/10/18 13:17:57;;;;;;;;;;;;;;;35.76;23.76;101638.38;5047972;28;19917;-84
2022/10/18 13:20:42;;;;;;;;;;;;;;;35.61;23.72;101635.28;5034762;28;19917;-83
2022/10/18 13:23:45;;;;;;;;;;;;;;;35.35;23.70;101629.09;5062754;28;19921;-83
2022/10/18 13:26:36;;;;;;;;;;;;;;;35.89;23.34;101622.03;5065729;28;20117;-83
2022/10/18 13:29:35;;;;;;;;;;;;;;;34.44;24.96;101622.78;5035201;28;20368;-83
2022/10/18 13:32:20;;;;;;;;;;;;;;;34.51;25.33;101628.19;5034346;28;19921;-83
2022/10/18 13:35:25;;;;;;;;;;;;;;;34.59;25.02;101626.66;5034431;28;19921;-83
2022/10/18 13:38:22;;;;;;;;;;;;;;;33.06;26.80;101614.00;5068659;28;19917;-85
2022/10/18 13:41:08;;;;;;;;;;;;;;;35.00;24.97;101619.91;5076738;28;19917;-83
2022/10/18 13:43:52;;;;;;;;;;;;;;;35.51;23.78;101613.88;5046333;28;19921;-83
2022/10/18 13:46:37;;;;;;;;;;;;;;;33.73;26.43;101608.28;5070972;28;19921;-85
2022/10/18 13:49:22;;;;;;;;;;;;;;;33.83;25.99;101612.78;5043296;28;19918;-85
2022/10/18 13:52:09;;;;;;;;;;;;;;;33.99;25.95;101613.88;5042942;28;19917;-85
2022/10/18 13:55:13;;;;;;;;;;;;;;;33.22;26.73;101604.66;5070217;28;20384;-86
2022/10/18 13:58:05;;;;;;;;;;;;;;;33.39;27.28;101605.34;5057487;28;20304;-85
2022/10/18 14:01:05;;;;;;;;;;;;;;;32.45;27.96;101600.03;5040450;28;19917;-85
2022/10/18 14:03:49;;;;;;;;;;;;;;;31.36;29.89;101595.13;5072560;28;19921;-85
2022/10/18 14:06:36;;;;;;;;;;;;;;;31.48;29.97;101599.28;5070058;28;19928;-86
2022/10/18 14:09:22;;;;;;;;;;;;;;;31.88;29.18;101606.38;5040552;28;19917;-85
2022/10/18 14:12:19;;;;;;;;;;;;;;;33.21;27.48;101607.94;5071688;28;19917;-85
2022/10/18 14:15:17;;;;;;;;;;;;;;;31.83;29.15;101595.63;5069829;28;19917;-82
2022/10/18 14:18:11;;;;;;;;;;;;;;;32.39;28.21;101601.03;5069246;28;20304;-84
2022/10/18 14:21:00;;;;;;;;;;;;;;;31.45;29.90;101595.31;5040685;28;19917;-85